createdAt,value
2019-05-16T00:00:11.330Z,1.37
2019-05-16T00:02:39.774Z,1.10
2019-05-16T00:05:08.494Z,1.17
2019-05-16T00:07:38.995Z,1.03
2019-05-16T00:10:09.452Z,1.00
2019-05-16T00:12:39.945Z,1.23
2019-05-16T00:15:09.402Z,1.10
2019-05-16T00:17:39.788Z,1.10
2019-05-16T00:20:09.360Z,1.03
2019-05-16T00:22:39.423Z,0.97
2019-05-16T00:25:08.825Z,1.40
2019-05-16T00:27:38.775Z,1.20
2019-05-16T00:30:08.876Z,1.00
2019-05-16T00:32:39.126Z,1.17
2019-05-16T00:35:09.164Z,1.10
2019-05-16T00:37:39.171Z,1.00
2019-05-16T00:40:08.586Z,1.70
2019-05-16T00:42:39.063Z,1.20
2019-05-16T00:45:09.346Z,1.00
2019-05-16T00:47:39.079Z,1.20
2019-05-16T00:50:09.120Z,1.23
2019-05-16T00:52:39.719Z,0.97
2019-05-16T00:55:10.243Z,1.07
2019-05-16T00:57:39.527Z,1.20
2019-05-16T01:00:11.415Z,1.10
2019-05-16T01:02:39.860Z,1.20
2019-05-16T01:05:08.724Z,1.10
2019-05-16T01:07:39.152Z,1.47
2019-05-16T01:10:09.388Z,1.43
2019-05-16T01:12:39.044Z,0.77
2019-05-16T01:15:09.177Z,1.17
2019-05-16T01:17:39.053Z,1.40
2019-05-16T01:20:08.860Z,1.40
2019-05-16T01:22:38.493Z,1.00
2019-05-16T01:25:09.469Z,1.00
2019-05-16T01:27:38.695Z,1.00
2019-05-16T01:30:09.080Z,0.83
2019-05-16T01:32:39.536Z,1.00
2019-05-16T01:35:10.594Z,1.00
2019-05-16T01:37:38.863Z,1.30
2019-05-16T01:40:09.061Z,1.20
2019-05-16T01:42:38.804Z,1.00
2019-05-16T01:45:09.891Z,1.00
2019-05-16T01:47:40.064Z,1.53
2019-05-16T01:50:09.044Z,1.10
2019-05-16T01:52:38.365Z,1.20
2019-05-16T01:55:10.179Z,0.80
2019-05-16T01:57:39.371Z,1.00
2019-05-16T02:00:09.027Z,0.93
2019-05-16T02:02:38.519Z,1.57
2019-05-16T02:05:10.057Z,1.00
2019-05-16T02:07:38.974Z,1.00
2019-05-16T02:10:11.304Z,1.20
2019-05-16T02:12:39.447Z,1.33
2019-05-16T02:15:09.023Z,1.20
2019-05-16T02:17:38.557Z,0.90
2019-05-16T02:20:10.075Z,0.90
2019-05-16T02:22:39.179Z,1.07
2019-05-16T02:25:08.955Z,1.20
2019-05-16T02:27:40.982Z,1.03
2019-05-16T02:30:12.353Z,1.10
2019-05-16T02:32:41.788Z,1.00
2019-05-16T02:35:11.867Z,1.03
2019-05-16T02:37:42.251Z,1.07
2019-05-16T02:40:12.386Z,1.10
2019-05-16T02:42:42.557Z,0.97
2019-05-16T02:45:12.691Z,0.93
2019-05-16T02:47:42.536Z,1.20
2019-05-16T02:50:12.767Z,1.00
2019-05-16T02:52:41.738Z,1.10
2019-05-16T02:55:12.358Z,0.90
2019-05-16T02:57:42.123Z,0.97
2019-05-16T03:00:12.725Z,0.83
2019-05-16T03:02:42.688Z,0.90
2019-05-16T03:05:12.830Z,1.30
2019-05-16T03:07:47.078Z,1.20
2019-05-16T03:10:13.729Z,1.20
2019-05-16T03:12:43.804Z,0.97
2019-05-16T03:15:13.343Z,1.33
2019-05-16T03:17:43.109Z,0.97
2019-05-16T03:20:13.643Z,1.30
2019-05-16T03:22:43.149Z,1.10
2019-05-16T03:25:12.042Z,1.23
2019-05-16T03:27:41.786Z,1.27
2019-05-16T03:30:15.394Z,1.30
2019-05-16T03:32:45.264Z,1.13
2019-05-16T03:35:16.181Z,0.97
2019-05-16T03:37:55.001Z,1.13
2019-05-16T03:40:16.551Z,1.17
2019-05-16T03:42:45.321Z,1.40
2019-05-16T03:45:13.757Z,1.20
2019-05-16T03:47:43.221Z,1.33
2019-05-16T03:50:12.411Z,1.03
2019-05-16T03:52:43.676Z,0.83
2019-05-16T03:55:15.480Z,0.87
2019-05-16T03:57:43.589Z,1.20
2019-05-16T04:00:14.527Z,1.10
2019-05-16T04:02:45.793Z,1.70
2019-05-16T04:05:12.881Z,1.20
2019-05-16T04:07:41.941Z,1.13
2019-05-16T04:10:12.544Z,1.30
2019-05-16T04:12:41.894Z,1.43
2019-05-16T04:15:11.829Z,1.40
2019-05-16T04:17:41.420Z,1.10
2019-05-16T04:20:11.925Z,0.97
2019-05-16T04:22:41.162Z,1.27
2019-05-16T04:25:11.428Z,1.17
2019-05-16T04:27:41.931Z,1.10
2019-05-16T04:30:12.251Z,1.00
2019-05-16T04:32:42.271Z,2.03
2019-05-16T04:35:11.799Z,1.80
2019-05-16T04:37:42.085Z,2.17
2019-05-16T04:40:14.889Z,1.47
2019-05-16T04:42:43.601Z,1.67
2019-05-16T04:45:14.144Z,1.47
2019-05-16T04:47:42.256Z,1.70
2019-05-16T04:50:12.242Z,1.27
2019-05-16T04:52:41.883Z,1.10
2019-05-16T04:55:12.383Z,1.20
2019-05-16T04:57:42.113Z,1.40
2019-05-16T05:00:13.253Z,1.30
2019-05-16T05:02:42.153Z,1.43
2019-05-16T05:05:13.037Z,1.63
2019-05-16T05:07:42.461Z,1.60
2019-05-16T05:10:13.782Z,1.40
2019-05-16T05:12:42.224Z,1.67
2019-05-16T05:15:11.808Z,1.40
2019-05-16T05:17:41.856Z,1.10
2019-05-16T05:20:12.612Z,1.20
2019-05-16T05:22:41.332Z,1.70
2019-05-16T05:25:11.133Z,1.47
2019-05-16T05:27:41.167Z,1.43
2019-05-16T05:30:12.752Z,0.90
2019-05-16T05:32:41.739Z,1.33
2019-05-16T05:35:12.160Z,1.43
2019-05-16T05:37:41.046Z,2.03
2019-05-16T05:40:11.030Z,1.40
2019-05-16T05:42:40.775Z,1.40
2019-05-16T05:45:11.201Z,1.20
2019-05-16T05:47:40.756Z,1.27
2019-05-16T05:50:11.229Z,1.37
2019-05-16T05:52:41.302Z,1.53
2019-05-16T05:55:10.988Z,1.40
2019-05-16T05:57:41.157Z,1.30
2019-05-16T06:00:12.101Z,1.80
2019-05-16T06:02:41.104Z,1.37
2019-05-16T06:05:10.612Z,1.70
2019-05-16T06:07:40.388Z,1.43
2019-05-16T06:10:10.742Z,1.70
2019-05-16T06:12:40.887Z,1.30
2019-05-16T06:15:12.830Z,1.50
2019-05-16T06:17:41.888Z,1.70
2019-05-16T06:20:14.446Z,1.80
2019-05-16T06:22:41.716Z,1.43
2019-05-16T06:25:13.489Z,1.73
2019-05-16T06:27:40.810Z,1.50
2019-05-16T06:30:11.405Z,1.83
2019-05-16T06:32:40.478Z,1.80
2019-05-16T06:35:10.811Z,1.63
2019-05-16T06:37:40.767Z,1.73
2019-05-16T06:40:10.952Z,1.53
2019-05-16T06:42:40.351Z,1.70
2019-05-16T06:45:10.711Z,2.13
2019-05-16T06:47:40.880Z,1.60
2019-05-16T06:50:11.440Z,1.93
2019-05-16T06:52:40.982Z,1.80
2019-05-16T06:55:10.414Z,2.00
2019-05-16T06:57:40.915Z,1.67
2019-05-16T07:00:11.117Z,1.67
2019-05-16T07:02:40.889Z,2.00
2019-05-16T07:05:11.504Z,1.60
2019-05-16T07:07:40.593Z,2.07
2019-05-16T07:10:11.265Z,1.97
2019-05-16T07:12:41.367Z,1.83
2019-05-16T07:15:12.748Z,1.70
2019-05-16T07:17:42.289Z,2.10
2019-05-16T07:20:11.890Z,2.00
2019-05-16T07:22:40.753Z,2.20
2019-05-16T07:25:11.232Z,1.97
2019-05-16T07:27:40.242Z,2.60
2019-05-16T07:30:12.496Z,2.00
2019-05-16T07:32:41.712Z,2.10
2019-05-16T07:35:10.735Z,1.87
2019-05-16T07:37:40.161Z,2.00
2019-05-16T07:40:19.471Z,1.90
2019-05-16T07:42:41.028Z,1.83
2019-05-16T07:45:10.798Z,2.00
2019-05-16T07:47:40.516Z,2.20
2019-05-16T07:50:10.463Z,1.90
2019-05-16T07:52:40.785Z,2.07
2019-05-16T07:55:11.137Z,2.20
2019-05-16T07:57:40.008Z,2.20
2019-05-16T08:00:11.661Z,2.40
2019-05-16T08:02:40.510Z,2.20
2019-05-16T08:05:11.692Z,2.03
2019-05-16T08:07:40.849Z,2.93
2019-05-16T08:10:11.058Z,2.60
2019-05-16T08:12:40.895Z,2.80
2019-05-16T08:15:11.493Z,2.37
2019-05-16T08:17:44.317Z,2.47
2019-05-16T08:20:12.039Z,2.40
2019-05-16T08:22:41.597Z,2.03
2019-05-16T08:25:12.215Z,2.63
2019-05-16T08:27:41.397Z,2.43
2019-05-16T08:30:11.319Z,2.73
2019-05-16T08:32:42.159Z,2.70
2019-05-16T08:35:14.547Z,2.50
2019-05-16T08:40:14.536Z,2.20
2019-05-16T08:42:43.044Z,2.70
2019-05-16T08:45:13.644Z,3.27
2019-05-16T08:47:42.587Z,3.20
2019-05-16T08:50:08.651Z,3.00
2019-05-16T08:50:14.377Z,2.70
2019-05-16T08:52:43.575Z,2.80
2019-05-16T08:55:13.668Z,2.60
2019-05-16T08:57:42.900Z,2.60
2019-05-16T09:00:14.558Z,2.87
2019-05-16T09:02:42.558Z,3.30
2019-05-16T09:05:13.476Z,3.10
2019-05-16T09:07:42.205Z,3.03
2019-05-16T09:10:45.696Z,3.17
2019-05-16T09:12:41.800Z,2.80
2019-05-16T09:15:11.421Z,2.93
2019-05-16T09:17:40.408Z,2.43
2019-05-16T09:20:10.332Z,3.00
2019-05-16T09:22:39.104Z,3.30
2019-05-16T09:25:08.407Z,3.07
2019-05-16T09:27:38.185Z,3.33
2019-05-16T09:30:08.254Z,3.00
2019-05-16T09:32:37.224Z,4.00
2019-05-16T09:35:09.461Z,3.20
2019-05-16T09:37:37.961Z,3.03
2019-05-16T09:40:08.661Z,3.10
2019-05-16T09:42:37.939Z,3.40
2019-05-16T09:45:09.865Z,3.40
2019-05-16T09:47:39.476Z,3.60
2019-05-16T09:50:10.786Z,3.00
2019-05-16T09:52:40.319Z,3.20
2019-05-16T09:55:09.769Z,2.97
2019-05-16T09:57:38.841Z,4.10
2019-05-16T10:00:14.668Z,3.10
2019-05-16T10:02:43.949Z,4.30
2019-05-16T10:05:13.671Z,3.30
2019-05-16T10:07:43.391Z,3.40
2019-05-16T10:10:12.900Z,3.17
2019-05-16T10:12:41.947Z,3.37
2019-05-16T10:15:11.732Z,3.20
2019-05-16T10:17:40.685Z,3.00
2019-05-16T10:20:09.598Z,3.13
2019-05-16T10:22:38.727Z,2.53
2019-05-16T10:25:13.188Z,3.37
2019-05-16T10:27:41.580Z,3.30
2019-05-16T10:30:11.305Z,3.40
2019-05-16T10:32:40.268Z,2.70
2019-05-16T10:35:10.360Z,3.10
2019-05-16T10:37:38.545Z,3.37
2019-05-16T10:40:08.820Z,2.87
2019-05-16T10:42:38.109Z,3.17
2019-05-16T10:45:10.006Z,2.90
2019-05-16T10:47:38.448Z,2.87
2019-05-16T10:50:08.545Z,3.23
2019-05-16T10:52:37.764Z,2.67
2019-05-16T10:55:09.006Z,2.50
2019-05-16T10:57:37.951Z,2.60
2019-05-16T11:00:16.372Z,2.83
2019-05-16T11:02:39.254Z,3.07
2019-05-16T11:05:24.953Z,2.80
2019-05-16T11:07:38.412Z,3.23
2019-05-16T11:10:07.984Z,2.80
2019-05-16T11:12:47.718Z,2.57
2019-05-16T11:15:11.333Z,3.20
2019-05-16T11:17:40.664Z,2.90
2019-05-16T11:20:13.492Z,3.20
2019-05-16T11:22:42.375Z,2.90
2019-05-16T11:25:20.764Z,2.60
2019-05-16T11:27:40.671Z,3.73
2019-05-16T11:30:10.501Z,2.70
2019-05-16T11:32:39.953Z,2.40
2019-05-16T11:35:09.552Z,2.53
2019-05-16T11:37:37.871Z,2.50
2019-05-16T11:40:07.156Z,2.20
2019-05-16T11:42:37.901Z,2.83
2019-05-16T11:45:09.793Z,2.60
2019-05-16T11:47:38.739Z,2.83
2019-05-16T11:50:08.623Z,2.03
2019-05-16T11:52:40.451Z,2.40
2019-05-16T11:55:09.963Z,2.63
2019-05-16T11:57:38.168Z,2.60
2019-05-16T12:00:12.171Z,2.47
2019-05-16T12:02:42.816Z,2.63
2019-05-16T12:05:11.572Z,2.20
2019-05-16T12:07:44.252Z,2.53
2019-05-16T12:10:12.701Z,2.63
2019-05-16T12:12:41.145Z,2.67
2019-05-16T12:15:10.523Z,2.73
2019-05-16T12:17:39.670Z,2.83
2019-05-16T12:20:09.392Z,2.60
2019-05-16T12:22:37.790Z,2.70
2019-05-16T12:25:08.343Z,3.30
2019-05-16T12:27:42.125Z,2.70
2019-05-16T12:30:13.653Z,2.23
2019-05-16T12:32:39.008Z,2.77
2019-05-16T12:35:07.619Z,3.40
2019-05-16T12:37:37.259Z,2.80
2019-05-16T12:40:08.633Z,2.57
2019-05-16T12:42:37.077Z,2.77
2019-05-16T12:45:10.817Z,2.37
2019-05-16T12:47:40.074Z,2.90
2019-05-16T12:50:10.778Z,3.10
2019-05-16T12:52:40.293Z,2.80
2019-05-16T12:55:10.832Z,2.53
2019-05-16T12:57:39.381Z,2.60
2019-05-16T13:00:15.206Z,2.63
2019-05-16T13:02:38.600Z,3.03
2019-05-16T13:05:08.851Z,2.70
2019-05-16T13:07:37.901Z,2.67
2019-05-16T13:10:08.223Z,2.30
2019-05-16T13:12:38.009Z,2.73
2019-05-16T13:15:12.452Z,2.63
2019-05-16T13:17:40.611Z,2.77
2019-05-16T13:20:09.660Z,2.77
2019-05-16T13:22:38.712Z,2.07
2019-05-16T13:25:09.795Z,2.30
2019-05-16T13:27:38.792Z,2.60
2019-05-16T13:30:08.483Z,2.70
2019-05-16T13:32:37.625Z,2.80
2019-05-16T13:35:07.701Z,3.10
2019-05-16T13:37:37.301Z,2.47
2019-05-16T13:40:09.111Z,2.70
2019-05-16T13:42:39.203Z,2.70
2019-05-16T13:45:09.118Z,3.10
2019-05-16T13:47:37.914Z,2.60
2019-05-16T13:50:12.262Z,2.40
2019-05-16T13:52:39.144Z,2.27
2019-05-16T13:55:08.838Z,3.07
2019-05-16T13:57:37.744Z,2.80
2019-05-16T14:00:07.798Z,2.60
2019-05-16T14:02:38.056Z,2.80
2019-05-16T14:05:08.202Z,2.53
2019-05-16T14:07:37.483Z,2.77
2019-05-16T14:10:09.476Z,2.53
2019-05-16T14:12:37.992Z,2.30
2019-05-16T14:15:09.668Z,2.40
2019-05-16T14:17:38.585Z,2.37
2019-05-16T14:20:14.420Z,2.53
2019-05-16T14:22:39.383Z,2.17
2019-05-16T14:25:09.682Z,2.60
2019-05-16T14:27:38.640Z,2.40
2019-05-16T14:30:12.448Z,2.60
2019-05-16T14:32:43.721Z,2.60
2019-05-16T14:35:11.352Z,2.10
2019-05-16T14:37:40.476Z,2.93
2019-05-16T14:40:10.463Z,2.60
2019-05-16T14:42:39.173Z,2.93
2019-05-16T14:45:17.066Z,2.37
2019-05-16T14:47:47.532Z,2.60
2019-05-16T14:50:18.770Z,3.03
2019-05-16T14:52:48.040Z,2.13
2019-05-16T14:55:18.721Z,3.07
2019-05-16T14:57:47.490Z,3.90
2019-05-16T15:00:18.678Z,3.43
2019-05-16T15:02:48.349Z,3.10
2019-05-16T15:05:18.831Z,2.60
2019-05-16T15:07:48.329Z,3.43
2019-05-16T15:10:18.747Z,3.07
2019-05-16T15:12:48.441Z,3.13
2019-05-16T15:15:24.244Z,2.27
2019-05-16T15:17:52.279Z,2.33
2019-05-16T15:20:21.970Z,2.77
2019-05-16T15:22:51.455Z,2.50
2019-05-16T15:25:19.931Z,3.03
2019-05-16T15:27:52.220Z,4.07
2019-05-16T15:30:22.099Z,2.30
2019-05-16T15:32:50.576Z,2.57
2019-05-16T15:35:20.063Z,2.53
2019-05-16T15:37:49.077Z,3.40
2019-05-16T15:40:18.141Z,2.70
2019-05-16T15:42:46.285Z,3.10
2019-05-16T15:45:17.862Z,2.90
2019-05-16T15:47:46.412Z,3.10
2019-05-16T15:50:18.141Z,2.20
2019-05-16T15:52:48.436Z,3.20
2019-05-16T15:55:18.283Z,2.47
2019-05-16T15:57:47.489Z,2.60
2019-05-16T16:00:20.019Z,2.33
2019-05-16T16:02:48.561Z,2.60
2019-05-16T16:05:18.170Z,2.40
2019-05-16T16:07:48.267Z,3.27
2019-05-16T16:10:20.666Z,2.67
2019-05-16T16:12:49.043Z,2.33
2019-05-16T16:15:17.630Z,2.83
2019-05-16T16:17:46.986Z,2.73
2019-05-16T16:20:17.258Z,2.63
2019-05-16T16:22:46.980Z,3.93
2019-05-16T16:25:17.828Z,2.53
2019-05-16T16:27:46.313Z,2.47
2019-05-16T16:30:18.506Z,2.53
2019-05-16T16:32:46.203Z,2.97
2019-05-16T16:35:17.354Z,2.60
2019-05-16T16:37:46.913Z,3.00
2019-05-16T16:40:17.549Z,3.03
2019-05-16T16:42:50.299Z,2.90
2019-05-16T16:45:19.473Z,3.07
2019-05-16T16:47:48.571Z,3.40
2019-05-16T16:50:17.348Z,2.70
2019-05-16T16:52:49.501Z,2.87
2019-05-16T16:55:18.317Z,3.00
2019-05-16T16:57:47.333Z,3.20
2019-05-16T17:00:17.703Z,2.80
2019-05-16T17:03:02.008Z,2.80
2019-05-16T17:05:17.352Z,2.70
2019-05-16T17:07:48.542Z,3.20
2019-05-16T17:10:16.645Z,3.07
2019-05-16T17:12:47.026Z,2.53
2019-05-16T17:15:17.120Z,2.70
2019-05-16T17:17:46.652Z,2.70
2019-05-16T17:20:17.705Z,2.83
2019-05-16T17:22:46.737Z,3.20
2019-05-16T17:25:17.436Z,2.60
2019-05-16T17:27:46.841Z,3.03
2019-05-16T17:30:18.772Z,2.60
2019-05-16T17:32:47.727Z,3.40
2019-05-16T17:35:19.158Z,2.53
2019-05-16T17:37:50.105Z,4.77
2019-05-16T17:40:19.824Z,3.17
2019-05-16T17:42:48.596Z,3.00
2019-05-16T17:45:19.660Z,3.07
2019-05-16T17:47:48.103Z,4.80
2019-05-16T17:50:17.889Z,2.83
2019-05-16T17:52:47.879Z,3.67
2019-05-16T17:55:17.900Z,2.87
2019-05-16T17:57:47.048Z,3.23
2019-05-16T18:00:25.265Z,3.37
2019-05-16T18:02:46.795Z,3.17
2019-05-16T18:05:16.989Z,2.80
2019-05-16T18:07:47.663Z,3.07
2019-05-16T18:10:19.031Z,3.20
2019-05-16T18:12:48.217Z,3.23
2019-05-16T18:15:20.280Z,2.93
2019-05-16T18:17:48.495Z,3.17
2019-05-16T18:20:18.124Z,2.73
2019-05-16T18:22:47.263Z,3.37
2019-05-16T18:25:18.152Z,4.30
2019-05-16T18:27:47.418Z,5.00
2019-05-16T18:30:18.795Z,5.90
2019-05-16T18:32:47.805Z,6.87
2019-05-16T18:35:17.220Z,7.33
2019-05-16T18:37:46.473Z,8.80
2019-05-16T18:40:16.775Z,8.07
2019-05-16T18:42:47.609Z,7.30
2019-05-16T18:45:17.341Z,7.13
2019-05-16T18:47:47.036Z,7.90
2019-05-16T18:50:18.048Z,7.20
2019-05-16T18:52:47.114Z,7.17
2019-05-16T18:55:17.042Z,7.10
2019-05-16T18:57:47.308Z,6.70
2019-05-16T19:00:17.949Z,6.27
2019-05-16T19:02:47.929Z,6.73
2019-05-16T19:05:17.234Z,6.20
2019-05-16T19:07:47.522Z,5.93
2019-05-16T19:10:18.524Z,5.57
2019-05-16T19:12:47.766Z,6.30
2019-05-16T19:15:17.959Z,5.80
2019-05-16T19:17:47.791Z,6.30
2019-05-16T19:20:17.673Z,5.00
2019-05-16T19:22:46.891Z,5.00
2019-05-16T19:25:18.342Z,6.73
2019-05-16T19:27:46.549Z,4.60
2019-05-16T19:30:16.639Z,5.57
2019-05-16T19:32:46.903Z,4.80
2019-05-16T19:35:16.442Z,5.20
2019-05-16T19:37:47.026Z,5.57
2019-05-16T19:40:17.721Z,3.93
2019-05-16T19:42:47.179Z,4.20
2019-05-16T19:45:17.568Z,4.23
2019-05-16T19:47:47.093Z,4.40
2019-05-16T19:50:16.568Z,3.70
2019-05-16T19:52:47.036Z,3.93
2019-05-16T19:55:16.088Z,3.70
2019-05-16T19:57:46.502Z,4.83
2019-05-16T20:00:17.006Z,4.53
2019-05-16T20:02:47.188Z,4.27
2019-05-16T20:05:17.054Z,3.40
2019-05-16T20:18:51.516Z,4.03
2019-05-16T20:21:18.533Z,3.50
2019-05-16T20:23:47.171Z,3.40
2019-05-16T20:26:13.144Z,3.30
2019-05-16T20:28:39.600Z,3.13
2019-05-16T20:31:07.924Z,3.07
2019-05-16T20:33:34.489Z,3.33
2019-05-16T20:36:00.923Z,3.43
2019-05-16T20:38:27.409Z,3.00
2019-05-16T20:40:53.720Z,2.90
2019-05-16T20:43:20.241Z,3.30
2019-05-16T20:45:47.660Z,3.20
2019-05-16T20:48:16.135Z,3.47
2019-05-16T20:50:43.115Z,3.60
2019-05-16T20:53:09.554Z,3.80
2019-05-16T20:55:37.670Z,3.30
2019-05-16T20:58:04.016Z,3.30
2019-05-16T21:00:30.381Z,3.73
2019-05-16T21:02:57.473Z,3.50
2019-05-16T21:05:26.711Z,3.10
2019-05-16T21:07:52.955Z,2.90
2019-05-16T21:10:19.756Z,3.00
2019-05-16T21:12:46.795Z,3.40
2019-05-16T21:15:16.991Z,3.03
2019-05-16T21:17:43.596Z,3.30
2019-05-16T21:20:10.140Z,3.90
2019-05-16T21:22:37.111Z,3.23
2019-05-16T21:25:05.976Z,2.87
2019-05-16T21:27:32.713Z,2.87
2019-05-16T21:29:58.759Z,3.60
2019-05-16T21:32:26.986Z,3.00
2019-05-16T21:34:53.532Z,3.70
2019-05-16T21:37:20.575Z,2.90
2019-05-16T21:39:47.511Z,3.30
2019-05-16T21:42:16.497Z,2.80
2019-05-16T21:44:42.588Z,2.83
2019-05-16T21:47:09.008Z,2.70
2019-05-16T21:49:36.971Z,2.70
2019-05-16T21:52:04.095Z,2.70
2019-05-16T21:54:30.155Z,2.60
2019-05-16T21:56:57.124Z,2.37
2019-05-16T21:59:24.108Z,3.00
2019-05-16T22:01:52.488Z,2.70
2019-05-16T22:04:18.545Z,2.70
2019-05-16T22:06:47.323Z,2.90
2019-05-16T22:09:13.313Z,2.73
2019-05-16T22:11:39.964Z,2.47
2019-05-16T22:14:06.637Z,2.97
2019-05-16T22:16:33.308Z,2.10
2019-05-16T22:18:59.365Z,2.60
2019-05-16T22:21:27.034Z,2.17
2019-05-16T22:23:53.843Z,2.73
2019-05-16T22:26:20.599Z,2.23
2019-05-16T22:28:49.363Z,2.20
2019-05-16T22:31:16.493Z,2.50
2019-05-16T22:33:43.367Z,2.00
2019-05-16T22:36:09.787Z,2.20
2019-05-16T22:38:35.840Z,2.33
2019-05-16T22:41:01.927Z,2.30
2019-05-16T22:43:28.344Z,2.37
2019-05-16T22:45:57.255Z,2.33
2019-05-16T22:48:23.385Z,2.30
2019-05-16T22:50:49.436Z,2.07
2019-05-16T22:53:17.206Z,2.27
2019-05-16T22:55:43.508Z,1.97
2019-05-16T22:58:09.597Z,1.93
2019-05-16T23:00:39.393Z,2.10
2019-05-16T23:03:06.579Z,2.30
2019-05-16T23:05:32.969Z,2.27
2019-05-16T23:08:05.608Z,2.40
2019-05-16T23:10:28.009Z,1.90
2019-05-16T23:12:57.002Z,2.10
2019-05-16T23:15:23.276Z,2.10
2019-05-16T23:17:49.617Z,1.80
2019-05-16T23:20:17.061Z,2.33
2019-05-16T23:22:43.700Z,2.10
2019-05-16T23:25:10.787Z,2.00
2019-05-16T23:27:37.033Z,2.23
2019-05-16T23:30:07.408Z,1.70
2019-05-16T23:32:36.383Z,2.30
2019-05-16T23:35:07.169Z,2.30
2019-05-16T23:37:33.861Z,1.50
2019-05-16T23:39:59.908Z,1.77
2019-05-16T23:42:26.361Z,2.20
2019-05-16T23:44:53.360Z,1.90
2019-05-16T23:47:19.428Z,2.30
2019-05-16T23:49:47.346Z,2.20
2019-05-16T23:52:13.808Z,1.97
2019-05-16T23:54:40.117Z,1.77
2019-05-16T23:57:06.703Z,2.30
2019-05-16T23:59:33.184Z,1.90
